createdAt,value
2022-10-20T00:01:08.159Z,18.90
2022-10-20T00:03:35.202Z,18.90
2022-10-20T00:06:14.094Z,18.90
2022-10-20T00:08:41.859Z,18.90
2022-10-20T00:11:10.063Z,18.90
2022-10-20T00:13:37.030Z,18.80
2022-10-20T00:16:04.204Z,18.80
2022-10-20T00:18:31.322Z,18.80
2022-10-20T00:20:58.284Z,18.80
2022-10-20T00:23:25.719Z,18.80
2022-10-20T00:26:11.745Z,18.80
2022-10-20T00:28:38.690Z,18.80
2022-10-20T00:31:06.478Z,18.80
2022-10-20T00:33:34.087Z,18.70
2022-10-20T00:36:02.484Z,18.70
2022-10-20T00:38:29.345Z,18.70
2022-10-20T00:40:56.291Z,18.70
2022-10-20T00:43:23.203Z,18.60
2022-10-20T00:45:54.555Z,18.60
2022-10-20T00:48:25.847Z,18.60
2022-10-20T00:50:56.010Z,18.60
2022-10-20T00:53:27.092Z,18.60
2022-10-20T00:55:56.903Z,18.60
2022-10-20T00:58:24.533Z,18.60
2022-10-20T01:00:55.749Z,18.50
2022-10-20T01:03:34.964Z,18.50
2022-10-20T01:06:01.777Z,18.50
2022-10-20T01:08:28.542Z,18.50
2022-10-20T01:11:10.458Z,18.50
2022-10-20T01:13:54.039Z,18.40
2022-10-20T01:16:46.514Z,18.40
2022-10-20T01:19:34.996Z,18.40
2022-10-20T01:22:12.048Z,18.40
2022-10-20T01:24:49.376Z,18.40
2022-10-20T01:27:22.646Z,18.40
2022-10-20T01:30:00.190Z,18.30
2022-10-20T01:32:35.747Z,18.30
2022-10-20T01:35:21.160Z,18.20
2022-10-20T01:38:04.408Z,18.20
2022-10-20T01:40:54.596Z,18.20
2022-10-20T01:43:23.985Z,18.20
2022-10-20T01:45:53.053Z,18.20
2022-10-20T01:48:25.822Z,18.10
2022-10-20T01:50:53.119Z,18.10
2022-10-20T01:53:20.684Z,18.10
2022-10-20T01:55:51.699Z,18.00
2022-10-20T01:58:49.598Z,18.00
2022-10-20T02:01:46.998Z,18.00
2022-10-20T02:04:15.274Z,18.00
2022-10-20T02:06:56.203Z,18.00
2022-10-20T02:09:32.800Z,18.00
2022-10-20T02:12:05.516Z,18.00
2022-10-20T02:14:33.301Z,17.90
2022-10-20T02:17:04.035Z,17.90
2022-10-20T02:19:36.167Z,17.90
2022-10-20T02:22:04.381Z,17.90
2022-10-20T02:24:36.112Z,17.90
2022-10-20T02:27:10.484Z,17.80
2022-10-20T02:29:42.245Z,17.80
2022-10-20T02:32:11.781Z,17.80
2022-10-20T02:34:42.306Z,17.80
2022-10-20T02:37:09.600Z,17.80
2022-10-20T02:39:36.654Z,17.70
2022-10-20T02:42:03.850Z,17.70
2022-10-20T02:44:30.536Z,17.60
2022-10-20T02:46:57.572Z,17.70
2022-10-20T02:49:25.233Z,17.70
2022-10-20T02:51:52.006Z,17.70
2022-10-20T02:54:19.154Z,17.70
2022-10-20T02:56:46.100Z,17.60
2022-10-20T02:59:14.809Z,17.60
2022-10-20T03:01:41.969Z,17.70
2022-10-20T03:04:08.874Z,17.60
2022-10-20T03:06:36.073Z,17.60
2022-10-20T03:09:02.983Z,17.60
2022-10-20T03:11:29.830Z,17.60
2022-10-20T03:13:56.705Z,17.60
2022-10-20T03:16:23.755Z,17.50
2022-10-20T03:18:50.440Z,17.50
2022-10-20T03:21:17.284Z,17.50
2022-10-20T03:23:44.110Z,17.40
2022-10-20T03:26:11.854Z,17.40
2022-10-20T03:28:39.825Z,17.40
2022-10-20T03:31:07.717Z,17.40
2022-10-20T03:33:34.727Z,17.50
2022-10-20T03:36:01.635Z,17.50
2022-10-20T03:38:28.568Z,17.50
2022-10-20T03:40:55.347Z,17.50
2022-10-20T03:43:22.394Z,17.40
2022-10-20T03:45:49.322Z,17.50
2022-10-20T03:48:16.181Z,17.50
2022-10-20T03:50:43.530Z,17.50
2022-10-20T03:53:14.389Z,17.40
2022-10-20T03:55:41.248Z,17.40
2022-10-20T03:58:07.965Z,17.40
2022-10-20T04:00:34.740Z,17.50
2022-10-20T04:03:01.413Z,17.40
2022-10-20T04:05:28.056Z,17.40
2022-10-20T04:07:54.895Z,17.40
2022-10-20T04:10:21.560Z,17.40
2022-10-20T04:12:48.319Z,17.40
2022-10-20T04:15:15.059Z,17.40
2022-10-20T04:17:41.773Z,17.30
2022-10-20T04:20:08.758Z,17.30
2022-10-20T04:22:35.730Z,17.30
2022-10-20T04:25:02.583Z,17.30
2022-10-20T04:27:29.297Z,17.30
2022-10-20T04:29:56.052Z,17.30
2022-10-20T04:32:22.707Z,17.30
2022-10-20T04:34:49.461Z,17.30
2022-10-20T04:37:16.208Z,17.30
2022-10-20T04:39:42.935Z,17.30
2022-10-20T04:42:09.607Z,17.20
2022-10-20T04:44:36.313Z,17.30
2022-10-20T04:47:02.940Z,17.30
2022-10-20T04:49:29.654Z,17.40
2022-10-20T04:52:00.814Z,17.40
2022-10-20T04:54:28.219Z,17.40
2022-10-20T04:56:55.555Z,17.50
2022-10-20T04:59:22.341Z,17.50
2022-10-20T05:01:49.118Z,17.50
2022-10-20T05:04:21.478Z,17.50
2022-10-20T05:06:49.398Z,17.40
2022-10-20T05:09:16.786Z,17.50
2022-10-20T05:11:43.645Z,17.50
2022-10-20T05:14:10.509Z,17.50
2022-10-20T05:16:37.505Z,17.40
2022-10-20T05:19:04.345Z,17.40
2022-10-20T05:21:32.182Z,17.40
2022-10-20T05:24:01.153Z,17.40
2022-10-20T05:26:29.763Z,17.30
2022-10-20T05:28:56.892Z,17.30
2022-10-20T05:31:23.785Z,17.30
2022-10-20T05:33:53.332Z,17.30
2022-10-20T05:36:22.483Z,17.30
2022-10-20T05:38:52.004Z,17.30
2022-10-20T05:41:21.124Z,17.30
2022-10-20T05:43:52.659Z,17.40
2022-10-20T05:46:20.181Z,17.40
2022-10-20T05:48:47.718Z,17.40
2022-10-20T05:51:17.601Z,17.50
2022-10-20T05:53:46.923Z,17.60
2022-10-20T05:56:16.528Z,17.60
2022-10-20T05:58:43.892Z,17.60
2022-10-20T06:01:21.279Z,17.60
2022-10-20T06:03:53.542Z,17.70
2022-10-20T06:06:21.681Z,17.70
2022-10-20T06:08:50.700Z,17.80
2022-10-20T06:11:18.596Z,17.80
2022-10-20T06:13:48.483Z,17.90
2022-10-20T06:16:21.233Z,17.90
2022-10-20T06:18:48.444Z,18.00
2022-10-20T06:21:20.530Z,18.00
2022-10-20T06:23:47.903Z,18.10
2022-10-20T06:26:19.884Z,18.10
2022-10-20T06:28:49.588Z,18.10
2022-10-20T06:31:31.165Z,18.10
2022-10-20T06:33:58.535Z,18.20
2022-10-20T06:36:27.043Z,18.20
2022-10-20T06:38:58.776Z,18.20
2022-10-20T06:41:27.107Z,18.30
2022-10-20T06:44:00.531Z,18.30
2022-10-20T06:46:29.877Z,18.40
2022-10-20T06:48:59.272Z,18.40
2022-10-20T06:51:26.261Z,18.50
2022-10-20T06:53:53.226Z,18.50
2022-10-20T06:56:25.046Z,18.50
2022-10-20T06:58:53.949Z,18.50
2022-10-20T07:01:29.525Z,18.50
2022-10-20T07:03:58.805Z,18.40
2022-10-20T07:06:37.272Z,18.40
2022-10-20T07:09:08.265Z,18.40
2022-10-20T07:11:36.208Z,18.40
2022-10-20T07:14:03.794Z,18.50
2022-10-20T07:16:33.012Z,18.50
2022-10-20T07:19:00.893Z,18.50
2022-10-20T07:21:32.414Z,18.50
2022-10-20T07:24:03.806Z,18.60
2022-10-20T07:26:33.860Z,18.70
2022-10-20T07:29:01.793Z,18.70
2022-10-20T07:31:38.567Z,18.80
2022-10-20T07:34:20.300Z,18.90
2022-10-20T07:36:50.540Z,18.90
2022-10-20T07:39:17.226Z,19.00
2022-10-20T07:41:45.604Z,19.10
2022-10-20T07:44:12.411Z,19.10
2022-10-20T07:46:39.132Z,19.20
2022-10-20T07:49:38.288Z,19.20
2022-10-20T07:51:52.555Z,19.30
2022-10-20T07:54:19.462Z,19.40
2022-10-20T07:56:46.504Z,19.50
2022-10-20T07:59:13.887Z,19.50
2022-10-20T08:01:40.907Z,19.60
2022-10-20T08:04:07.831Z,19.70
2022-10-20T08:06:34.829Z,19.70
2022-10-20T08:09:01.972Z,19.80
2022-10-20T08:11:28.923Z,19.80
2022-10-20T08:13:55.728Z,19.90
2022-10-20T08:21:52.987Z,20.10
2022-10-20T08:24:19.709Z,20.20
2022-10-20T08:26:46.689Z,20.30
2022-10-20T08:29:13.487Z,20.40
2022-10-20T08:31:40.478Z,20.50
2022-10-20T08:34:08.021Z,20.60
2022-10-20T08:36:37.173Z,20.70
2022-10-20T08:39:06.237Z,20.70
2022-10-20T08:42:02.709Z,20.80
2022-10-20T08:44:31.522Z,20.90
2022-10-20T08:47:01.409Z,21.00
2022-10-20T08:49:32.158Z,21.10
2022-10-20T08:51:59.595Z,21.20
2022-10-20T08:54:26.379Z,21.40
2022-10-20T08:56:53.247Z,21.50
2022-10-20T08:59:27.759Z,21.60
2022-10-20T09:01:56.190Z,21.70
2022-10-20T09:04:38.589Z,21.80
2022-10-20T09:07:18.538Z,21.90
2022-10-20T09:09:45.527Z,21.90
2022-10-20T09:12:15.342Z,22.00
2022-10-20T09:14:42.396Z,22.00
2022-10-20T09:17:18.853Z,22.10
2022-10-20T09:20:00.544Z,22.20
2022-10-20T09:22:33.372Z,22.30
2022-10-20T09:25:03.073Z,22.30
2022-10-20T09:27:29.747Z,22.40
2022-10-20T09:29:56.461Z,22.50
2022-10-20T09:32:50.927Z,22.50
2022-10-20T09:35:28.621Z,22.50
2022-10-20T09:37:58.353Z,22.70
2022-10-20T09:40:26.474Z,22.70
2022-10-20T09:43:11.644Z,22.90
2022-10-20T09:46:03.714Z,22.80
2022-10-20T09:48:38.437Z,22.90
2022-10-20T09:53:51.198Z,23.00
2022-10-20T09:56:35.738Z,23.10
2022-10-20T09:59:07.807Z,23.20
2022-10-20T10:01:34.622Z,23.30
2022-10-20T10:04:02.089Z,23.40
2022-10-20T10:06:38.287Z,23.40
2022-10-20T10:09:32.455Z,23.60
2022-10-20T10:12:06.119Z,23.70
2022-10-20T10:14:35.452Z,23.60
2022-10-20T10:17:02.482Z,23.60
2022-10-20T10:19:32.182Z,23.60
2022-10-20T10:22:01.812Z,23.70
2022-10-20T10:24:40.589Z,23.90
2022-10-20T10:27:20.677Z,23.90
2022-10-20T10:29:48.171Z,23.90
2022-10-20T10:32:26.915Z,24.00
2022-10-20T10:35:33.814Z,24.00
2022-10-20T10:38:00.849Z,24.00
2022-10-20T10:41:05.444Z,23.90
2022-10-20T10:43:48.781Z,23.80
2022-10-20T10:46:28.174Z,23.60
2022-10-20T10:49:24.742Z,23.60
2022-10-20T10:52:20.495Z,23.60
2022-10-20T10:55:14.384Z,23.90
2022-10-20T10:57:51.087Z,24.20
2022-10-20T11:00:25.400Z,24.60
2022-10-20T11:03:24.367Z,24.90
2022-10-20T11:06:03.351Z,25.20
2022-10-20T11:09:01.272Z,25.70
2022-10-20T11:12:03.487Z,26.30
2022-10-20T11:14:53.627Z,27.10
2022-10-20T11:17:43.513Z,28.40
2022-10-20T11:20:21.138Z,29.20
2022-10-20T11:23:09.680Z,30.20
2022-10-20T11:26:02.865Z,30.60
2022-10-20T11:28:44.450Z,30.80
2022-10-20T11:31:36.864Z,31.50
2022-10-20T11:34:14.444Z,31.70
2022-10-20T11:36:46.641Z,30.90
2022-10-20T11:39:30.583Z,30.10
2022-10-20T11:42:10.516Z,29.40
2022-10-20T11:44:41.583Z,29.30
2022-10-20T11:47:33.585Z,29.30
2022-10-20T11:50:00.464Z,29.40
2022-10-20T11:52:45.222Z,29.00
2022-10-20T11:55:23.882Z,28.40
2022-10-20T11:57:50.641Z,27.80
2022-10-20T12:00:53.226Z,27.30
2022-10-20T12:03:53.056Z,26.90
2022-10-20T12:06:19.879Z,26.70
2022-10-20T12:09:10.044Z,26.20
2022-10-20T12:12:01.795Z,26.00
2022-10-20T12:14:38.329Z,25.90
2022-10-20T12:17:28.365Z,25.70
2022-10-20T12:20:20.993Z,25.60
2022-10-20T12:22:53.377Z,25.40
2022-10-20T12:25:26.163Z,25.20
2022-10-20T12:28:32.662Z,25.00
2022-10-20T12:31:00.301Z,24.70
2022-10-20T12:34:01.183Z,24.40
2022-10-20T12:36:40.101Z,24.20
2022-10-20T12:39:12.926Z,24.30
2022-10-20T12:41:57.653Z,24.20
2022-10-20T12:44:26.439Z,24.20
2022-10-20T12:46:59.410Z,24.20
2022-10-20T12:49:33.343Z,24.60
2022-10-20T12:52:02.084Z,25.00
2022-10-20T12:54:39.029Z,25.30
2022-10-20T12:57:28.647Z,25.60
2022-10-20T12:59:55.382Z,25.60
2022-10-20T13:02:24.964Z,25.50
2022-10-20T13:05:02.902Z,25.20
2022-10-20T13:07:48.028Z,24.90
2022-10-20T13:10:27.241Z,24.80
2022-10-20T13:13:16.423Z,24.70
2022-10-20T13:15:43.122Z,24.60
2022-10-20T13:18:12.981Z,24.40
2022-10-20T13:20:45.560Z,24.40
2022-10-20T13:23:15.656Z,24.20
2022-10-20T13:25:53.353Z,24.20
2022-10-20T13:28:25.641Z,24.10
2022-10-20T13:31:04.492Z,24.20
2022-10-20T13:34:02.608Z,24.40
2022-10-20T13:36:56.532Z,24.40
2022-10-20T13:39:42.064Z,24.60
2022-10-20T13:42:36.946Z,24.70
2022-10-20T13:45:28.433Z,24.60
2022-10-20T13:48:07.053Z,24.60
2022-10-20T13:50:40.399Z,24.60
2022-10-20T13:53:13.420Z,24.60
2022-10-20T13:56:17.823Z,24.60
2022-10-20T13:59:05.984Z,24.40
2022-10-20T14:01:36.136Z,24.20
2022-10-20T14:04:03.106Z,24.10
2022-10-20T14:06:37.986Z,24.10
2022-10-20T14:09:31.179Z,24.00
2022-10-20T14:12:05.503Z,23.80
2022-10-20T14:14:32.989Z,23.70
2022-10-20T14:17:05.664Z,23.60
2022-10-20T14:19:33.979Z,23.50
2022-10-20T14:22:11.278Z,23.50
2022-10-20T14:24:42.496Z,23.40
2022-10-20T14:27:18.535Z,23.40
2022-10-20T14:29:45.863Z,23.30
2022-10-20T14:32:22.502Z,23.30
2022-10-20T14:35:01.714Z,23.30
2022-10-20T14:37:30.256Z,23.30
2022-10-20T14:40:00.901Z,23.20
2022-10-20T14:42:32.319Z,23.20
2022-10-20T14:45:00.924Z,23.20
2022-10-20T14:47:38.665Z,23.20
2022-10-20T14:50:06.087Z,23.20
2022-10-20T14:52:38.584Z,23.20
2022-10-20T14:55:33.109Z,23.20
2022-10-20T14:58:00.353Z,23.20
2022-10-20T15:00:33.587Z,23.20
2022-10-20T15:03:06.548Z,23.20
2022-10-20T15:05:42.181Z,23.20
2022-10-20T15:08:20.213Z,23.20
2022-10-20T15:10:47.288Z,23.30
2022-10-20T15:13:27.778Z,23.20
2022-10-20T15:15:56.537Z,23.20
2022-10-20T15:18:24.796Z,23.20
2022-10-20T15:20:53.272Z,23.10
2022-10-20T15:23:27.961Z,23.00
2022-10-20T15:26:09.494Z,23.00
2022-10-20T15:28:46.565Z,22.90
2022-10-20T15:31:13.241Z,22.90
2022-10-20T15:33:41.100Z,22.90
2022-10-20T15:36:21.043Z,22.80
2022-10-20T15:38:48.976Z,22.80
2022-10-20T15:41:25.578Z,22.70
2022-10-20T15:43:52.800Z,22.70
2022-10-20T15:46:20.619Z,22.70
2022-10-20T15:48:48.025Z,22.60
2022-10-20T15:51:29.478Z,22.60
2022-10-20T15:53:56.796Z,22.50
2022-10-20T15:56:23.632Z,22.50
2022-10-20T15:58:50.408Z,22.40
2022-10-20T16:01:19.095Z,22.40
2022-10-20T16:03:47.226Z,22.30
2022-10-20T16:06:17.318Z,22.20
2022-10-20T16:08:46.516Z,22.20
2022-10-20T16:11:14.591Z,22.20
2022-10-20T16:13:41.748Z,22.00
2022-10-20T16:16:12.186Z,22.10
2022-10-20T16:18:38.866Z,22.00
2022-10-20T16:21:07.359Z,22.00
2022-10-20T16:23:42.111Z,21.90
2022-10-20T16:26:11.786Z,21.80
2022-10-20T16:28:38.821Z,21.70
2022-10-20T16:31:10.965Z,21.70
2022-10-20T16:33:38.270Z,21.70
2022-10-20T16:38:39.132Z,21.60
2022-10-20T16:41:10.696Z,21.50
2022-10-20T16:43:39.214Z,21.50
2022-10-20T16:46:07.904Z,21.40
2022-10-20T16:48:37.635Z,21.40
2022-10-20T16:51:10.030Z,21.30
2022-10-20T16:53:37.591Z,21.30
2022-10-20T16:56:04.946Z,21.20
2022-10-20T16:58:31.655Z,21.20
2022-10-20T17:01:01.469Z,21.10
2022-10-20T17:03:29.592Z,21.20
2022-10-20T17:05:58.606Z,21.10
2022-10-20T17:08:26.119Z,21.20
2022-10-20T17:11:00.992Z,21.10
2022-10-20T17:13:28.933Z,21.10
2022-10-20T17:15:56.861Z,21.00
2022-10-20T17:18:24.210Z,21.00
2022-10-20T17:20:54.803Z,21.00
2022-10-20T17:23:22.712Z,21.00
2022-10-20T17:25:50.366Z,21.00
2022-10-20T17:28:17.619Z,20.90
2022-10-20T17:30:48.510Z,20.90
2022-10-20T17:33:15.323Z,20.90
2022-10-20T17:35:48.243Z,20.90
2022-10-20T17:38:14.892Z,20.90
2022-10-20T17:40:41.696Z,20.90
2022-10-20T17:43:08.387Z,20.80
2022-10-20T17:45:37.527Z,20.80
2022-10-20T17:48:05.300Z,20.80
2022-10-20T17:50:32.019Z,20.80
2022-10-20T17:53:02.202Z,20.80
2022-10-20T17:55:29.393Z,20.80
2022-10-20T17:57:56.709Z,20.80
2022-10-20T18:00:43.982Z,20.70
2022-10-20T18:03:10.428Z,20.70
2022-10-20T18:05:37.197Z,20.70
2022-10-20T18:08:03.899Z,20.70
2022-10-20T18:10:30.897Z,20.70
2022-10-20T18:12:57.655Z,20.70
2022-10-20T18:15:24.346Z,20.70
2022-10-20T18:17:51.129Z,20.60
2022-10-20T18:20:17.919Z,20.60
2022-10-20T18:22:45.564Z,20.60
2022-10-20T18:25:12.580Z,20.60
2022-10-20T18:27:39.313Z,20.60
2022-10-20T18:30:08.417Z,20.60
2022-10-20T18:32:36.435Z,20.60
2022-10-20T18:35:03.461Z,20.60
2022-10-20T18:37:30.103Z,20.60
2022-10-20T18:39:56.819Z,20.60
2022-10-20T18:42:23.475Z,20.60
2022-10-20T18:44:50.103Z,20.50
2022-10-20T18:47:17.096Z,20.50
2022-10-20T18:49:43.825Z,20.50
2022-10-20T18:52:10.548Z,20.50
2022-10-20T18:54:38.227Z,20.40
2022-10-20T18:57:04.885Z,20.40
2022-10-20T18:59:31.562Z,20.40
2022-10-20T19:01:58.243Z,20.40
2022-10-20T19:04:24.871Z,20.40
2022-10-20T19:06:52.166Z,20.40
2022-10-20T19:09:21.012Z,20.40
2022-10-20T19:14:20.829Z,20.40
2022-10-20T19:16:48.902Z,20.40
2022-10-20T19:19:16.001Z,20.30
2022-10-20T19:21:42.783Z,20.30
2022-10-20T19:24:17.624Z,20.30
2022-10-20T19:26:56.838Z,20.30
2022-10-20T19:29:33.683Z,20.20
2022-10-20T19:32:03.455Z,20.20
2022-10-20T19:34:36.313Z,20.20
2022-10-20T19:37:04.109Z,20.10
2022-10-20T19:39:34.429Z,20.10
2022-10-20T19:42:02.498Z,20.10
2022-10-20T19:44:29.459Z,20.10
2022-10-20T19:46:56.509Z,20.10
2022-10-20T19:49:24.125Z,20.00
2022-10-20T19:51:51.400Z,20.00
2022-10-20T19:54:19.331Z,20.00
2022-10-20T19:56:46.272Z,20.00
2022-10-20T19:59:13.833Z,20.00
2022-10-20T20:01:40.570Z,20.00
2022-10-20T20:04:07.784Z,20.00
2022-10-20T20:06:35.347Z,20.00
2022-10-20T20:09:05.610Z,20.00
2022-10-20T20:11:34.606Z,20.00
2022-10-20T20:14:04.600Z,20.00
2022-10-20T20:16:31.507Z,20.00
2022-10-20T20:18:58.592Z,19.90
2022-10-20T20:21:26.553Z,19.90
2022-10-20T20:24:01.912Z,19.90
2022-10-20T20:26:30.754Z,19.90
2022-10-20T20:28:58.074Z,19.90
2022-10-20T20:31:26.643Z,19.90
2022-10-20T20:33:54.079Z,19.90
2022-10-20T20:36:21.318Z,19.90
2022-10-20T20:38:48.054Z,19.90
2022-10-20T20:41:17.104Z,19.90
2022-10-20T20:43:47.419Z,19.90
2022-10-20T20:46:16.892Z,19.90
2022-10-20T20:48:44.275Z,19.90
2022-10-20T20:51:11.952Z,19.90
2022-10-20T20:53:39.805Z,19.80
2022-10-20T20:56:09.716Z,19.80
2022-10-20T20:58:36.666Z,19.80
2022-10-20T21:01:08.026Z,19.80
2022-10-20T21:03:35.310Z,19.80
2022-10-20T21:06:09.979Z,19.80
2022-10-20T21:08:39.221Z,19.80
2022-10-20T21:11:09.837Z,19.80
2022-10-20T21:13:37.063Z,19.80
2022-10-20T21:16:25.712Z,19.80
2022-10-20T21:18:55.014Z,19.80
2022-10-20T21:21:24.099Z,19.80
2022-10-20T21:23:51.819Z,19.80
2022-10-20T21:26:20.778Z,19.80
2022-10-20T21:28:48.367Z,19.80
2022-10-20T21:31:18.382Z,19.80
2022-10-20T21:33:46.100Z,19.80
2022-10-20T21:36:15.550Z,19.80
2022-10-20T21:38:43.341Z,19.80
2022-10-20T21:41:36.403Z,19.80
2022-10-20T21:44:05.446Z,19.80
2022-10-20T21:46:36.496Z,19.80
2022-10-20T21:49:06.029Z,19.80
2022-10-20T21:51:36.224Z,19.80
2022-10-20T21:54:05.688Z,19.80
2022-10-20T21:56:37.206Z,19.80
2022-10-20T21:59:05.347Z,19.80
2022-10-20T22:01:32.686Z,19.70
2022-10-20T22:03:59.472Z,19.70
2022-10-20T22:06:27.583Z,19.70
2022-10-20T22:08:57.208Z,19.70
2022-10-20T22:11:27.858Z,19.70
2022-10-20T22:13:55.528Z,19.70
2022-10-20T22:16:29.291Z,19.70
2022-10-20T22:19:05.484Z,19.70
2022-10-20T22:21:35.434Z,19.60
2022-10-20T22:24:02.312Z,19.60
2022-10-20T22:26:30.997Z,19.60
2022-10-20T22:28:58.339Z,19.60
2022-10-20T22:31:26.010Z,19.60
2022-10-20T22:33:54.638Z,19.60
2022-10-20T22:36:22.282Z,19.60
2022-10-20T22:38:49.046Z,19.60
2022-10-20T22:41:16.063Z,19.60
2022-10-20T22:43:42.863Z,19.60
2022-10-20T22:46:09.730Z,19.60
2022-10-20T22:48:36.628Z,19.60
2022-10-20T22:51:08.602Z,19.50
2022-10-20T22:53:36.108Z,19.60
2022-10-20T22:56:08.633Z,19.50
2022-10-20T22:58:36.007Z,19.50
2022-10-20T23:01:11.480Z,19.50
2022-10-20T23:03:38.600Z,19.50
2022-10-20T23:06:25.581Z,19.50
2022-10-20T23:08:54.860Z,19.50
2022-10-20T23:11:22.144Z,19.40
2022-10-20T23:13:50.901Z,19.40
2022-10-20T23:16:18.272Z,19.30
2022-10-20T23:18:45.012Z,19.30
2022-10-20T23:21:13.809Z,19.30
2022-10-20T23:23:40.766Z,19.20
2022-10-20T23:26:08.188Z,19.20
2022-10-20T23:28:35.931Z,19.20
2022-10-20T23:31:17.351Z,19.20
2022-10-20T23:33:45.695Z,19.20
2022-10-20T23:36:14.647Z,19.20
2022-10-20T23:38:43.109Z,19.20
2022-10-20T23:41:10.501Z,19.20
2022-10-20T23:43:37.446Z,19.20
2022-10-20T23:46:04.974Z,19.20
2022-10-20T23:48:31.728Z,19.20
2022-10-20T23:50:58.770Z,19.20
2022-10-20T23:53:25.751Z,19.10
2022-10-20T23:55:52.815Z,19.10
2022-10-20T23:58:23.148Z,19.20
